createdAt,value
2018-02-03T00:03:34.052Z,7
2018-02-03T00:13:34.246Z,6
2018-02-03T00:23:34.205Z,6
2018-02-03T00:33:34.046Z,5
2018-02-03T00:43:34.091Z,4
2018-02-03T00:53:33.870Z,6
2018-02-03T01:03:34.123Z,4
2018-02-03T01:13:34.493Z,5
2018-02-03T01:23:34.269Z,5
2018-02-03T01:33:34.126Z,5
2018-02-03T01:43:33.949Z,6
2018-02-03T01:53:33.931Z,5
2018-02-03T02:03:33.966Z,6
2018-02-03T02:13:34.586Z,4
2018-02-03T02:23:33.938Z,5
2018-02-03T02:33:33.943Z,4
2018-02-03T02:43:33.959Z,4
2018-02-03T02:53:33.919Z,5
2018-02-03T03:03:34.072Z,5
2018-02-03T03:13:33.945Z,5
2018-02-03T03:23:34.044Z,5
2018-02-03T03:33:34.021Z,5
2018-02-03T03:43:34.011Z,4
2018-02-03T03:53:34.008Z,5
2018-02-03T04:03:33.983Z,4
2018-02-03T04:13:34.034Z,4
2018-02-03T04:23:33.966Z,5
2018-02-03T04:33:34.065Z,4
2018-02-03T04:43:34.005Z,5
2018-02-03T04:53:34.146Z,5
2018-02-03T05:03:34.061Z,5
2018-02-03T05:13:34.056Z,5
2018-02-03T05:23:34.056Z,5
2018-02-03T05:33:34.106Z,4
2018-02-03T05:43:34.089Z,5
2018-02-03T05:53:34.067Z,6
2018-02-03T06:03:34.126Z,5
2018-02-03T06:13:34.112Z,5
2018-02-03T06:23:34.163Z,5
2018-02-03T06:33:34.095Z,4
2018-02-03T06:43:34.141Z,6
2018-02-03T06:53:34.102Z,6
2018-02-03T07:03:34.190Z,6
2018-02-03T07:13:34.124Z,6
2018-02-03T07:23:34.176Z,7
2018-02-03T07:33:34.242Z,5
2018-02-03T07:43:34.127Z,6
2018-02-03T07:53:34.213Z,6
2018-02-03T08:03:34.177Z,6
2018-02-03T08:13:34.367Z,5
2018-02-03T08:23:34.296Z,6
2018-02-03T08:33:34.320Z,7
2018-02-03T08:43:34.210Z,7
2018-02-03T08:53:34.330Z,8
2018-02-03T09:03:34.216Z,7
2018-02-03T09:13:34.248Z,8
2018-02-03T09:23:34.333Z,7
2018-02-03T09:33:35.146Z,9
2018-02-03T09:43:34.282Z,8
2018-02-03T09:53:34.262Z,10
2018-02-03T10:03:34.373Z,9
2018-02-03T10:13:34.265Z,10
2018-02-03T10:23:34.342Z,8
2018-02-03T10:33:34.411Z,9
2018-02-03T10:43:35.640Z,7
2018-02-03T10:53:34.690Z,7
2018-02-03T11:03:35.167Z,7
2018-02-03T11:13:34.421Z,7
2018-02-03T11:23:34.510Z,6
2018-02-03T11:33:39.088Z,6
2018-02-03T11:43:34.457Z,6
2018-02-03T11:53:34.691Z,6
2018-02-03T12:03:34.460Z,5
2018-02-03T12:13:34.363Z,6
2018-02-03T12:23:34.510Z,7
2018-02-03T12:33:35.067Z,6
2018-02-03T12:43:34.579Z,8
2018-02-03T12:53:34.726Z,8
2018-02-03T13:03:34.745Z,9
2018-02-03T13:13:34.461Z,9
2018-02-03T13:23:34.523Z,10
2018-02-03T13:33:34.491Z,11
2018-02-03T13:43:34.619Z,12
2018-02-03T13:53:34.549Z,13
2018-02-03T14:03:34.522Z,14
2018-02-03T14:13:34.491Z,14
2018-02-03T14:23:34.816Z,17
2018-02-03T14:33:34.690Z,14
2018-02-03T14:43:34.581Z,15
2018-02-03T14:53:34.491Z,15
2018-02-03T15:03:34.550Z,15
2018-02-03T15:13:34.505Z,16
2018-02-03T15:23:34.575Z,20
2018-02-03T15:33:34.879Z,22
2018-02-03T15:43:34.620Z,18
2018-02-03T15:53:34.832Z,18
2018-02-03T16:03:34.649Z,18
2018-02-03T16:13:35.077Z,19
2018-02-03T16:23:34.875Z,19
2018-02-03T16:33:34.607Z,19
2018-02-03T16:43:34.609Z,18
2018-02-03T16:53:35.220Z,22
2018-02-03T17:03:34.654Z,22
2018-02-03T17:13:34.718Z,22
2018-02-03T17:23:34.683Z,23
2018-02-03T17:33:34.639Z,22
2018-02-03T17:43:35.160Z,16
2018-02-03T17:53:35.128Z,10
2018-02-03T18:03:34.749Z,9
2018-02-03T18:13:35.211Z,8
2018-02-03T18:23:34.914Z,12
2018-02-03T18:33:35.076Z,12
2018-02-03T18:43:34.749Z,12
2018-02-03T18:53:34.751Z,7
2018-02-03T19:03:34.694Z,8
2018-02-03T19:13:36.918Z,11
2018-02-03T19:23:34.668Z,11
2018-02-03T19:33:34.959Z,12
2018-02-03T19:43:34.738Z,11
2018-02-03T19:53:34.828Z,11
2018-02-03T20:03:34.812Z,13
2018-02-03T20:13:34.685Z,13
2018-02-03T20:23:34.834Z,11
2018-02-03T20:33:34.822Z,11
2018-02-03T20:43:34.877Z,9
2018-02-03T20:53:35.080Z,9
2018-02-03T21:03:34.911Z,12
2018-02-03T21:13:34.826Z,11
2018-02-03T21:23:34.880Z,10
2018-02-03T21:33:34.851Z,9
2018-02-03T21:43:34.866Z,9
2018-02-03T21:53:34.909Z,9
2018-02-03T22:03:34.803Z,10
2018-02-03T22:13:34.803Z,10
2018-02-03T22:23:34.874Z,12
2018-02-03T22:33:35.018Z,9
2018-02-03T22:43:34.869Z,10
2018-02-03T22:53:34.911Z,9
2018-02-03T23:03:34.885Z,8
2018-02-03T23:13:34.941Z,10
2018-02-03T23:23:34.927Z,9
2018-02-03T23:33:34.972Z,11
2018-02-03T23:43:34.914Z,10
2018-02-03T23:53:34.902Z,8
